sensor_id;sensor_type;location;lat;lon;timestamp;temperature;humidity
46752;DHT22;32497;48.936;9.270;2023-10-09T00:02:37;12.80;86.10
46752;DHT22;32497;48.936;9.270;2023-10-09T00:07:39;12.80;85.90
46752;DHT22;32497;48.936;9.270;2023-10-09T00:12:40;12.70;86.00
46752;DHT22;32497;48.936;9.270;2023-10-09T00:17:42;12.70;86.40
46752;DHT22;32497;48.936;9.270;2023-10-09T00:22:43;12.70;86.60
46752;DHT22;32497;48.936;9.270;2023-10-09T00:27:44;12.60;86.60
46752;DHT22;32497;48.936;9.270;2023-10-09T00:32:47;12.60;86.70
46752;DHT22;32497;48.936;9.270;2023-10-09T00:37:48;12.70;86.80
46752;DHT22;32497;48.936;9.270;2023-10-09T00:42:49;12.70;86.30
46752;DHT22;32497;48.936;9.270;2023-10-09T00:47:52;12.80;86.40
46752;DHT22;32497;48.936;9.270;2023-10-09T00:52:55;12.90;86.20
46752;DHT22;32497;48.936;9.270;2023-10-09T00:57:58;12.90;86.20
46752;DHT22;32497;48.936;9.270;2023-10-09T01:03:01;13.00;85.90
46752;DHT22;32497;48.936;9.270;2023-10-09T01:08:03;13.10;85.80
46752;DHT22;32497;48.936;9.270;2023-10-09T01:13:04;13.10;85.50
46752;DHT22;32497;48.936;9.270;2023-10-09T01:18:07;13.10;85.30
46752;DHT22;32497;48.936;9.270;2023-10-09T01:23:11;13.00;85.50
46752;DHT22;32497;48.936;9.270;2023-10-09T01:28:12;12.90;85.70
46752;DHT22;32497;48.936;9.270;2023-10-09T01:33:13;13.00;85.70
46752;DHT22;32497;48.936;9.270;2023-10-09T01:38:15;13.00;85.60
46752;DHT22;32497;48.936;9.270;2023-10-09T01:43:17;13.00;85.40
46752;DHT22;32497;48.936;9.270;2023-10-09T01:48:18;13.00;85.40
46752;DHT22;32497;48.936;9.270;2023-10-09T01:53:20;12.90;85.50
46752;DHT22;32497;48.936;9.270;2023-10-09T01:58:21;12.90;85.50
46752;DHT22;32497;48.936;9.270;2023-10-09T02:03:22;12.90;85.60
46752;DHT22;32497;48.936;9.270;2023-10-09T02:08:25;12.90;85.60
46752;DHT22;32497;48.936;9.270;2023-10-09T02:13:26;12.90;85.50
46752;DHT22;32497;48.936;9.270;2023-10-09T02:18:27;13.00;85.40
46752;DHT22;32497;48.936;9.270;2023-10-09T02:23:31;12.90;85.20
46752;DHT22;32497;48.936;9.270;2023-10-09T02:28:33;13.00;85.20
46752;DHT22;32497;48.936;9.270;2023-10-09T02:33:35;13.00;85.20
46752;DHT22;32497;48.936;9.270;2023-10-09T02:38:37;13.00;85.40
46752;DHT22;32497;48.936;9.270;2023-10-09T02:43:39;12.90;85.70
46752;DHT22;32497;48.936;9.270;2023-10-09T02:48:40;12.90;85.70
46752;DHT22;32497;48.936;9.270;2023-10-09T02:53:42;12.90;85.60
46752;DHT22;32497;48.936;9.270;2023-10-09T02:58:43;12.90;85.60
46752;DHT22;32497;48.936;9.270;2023-10-09T03:03:45;12.90;85.60
46752;DHT22;32497;48.936;9.270;2023-10-09T03:08:47;12.90;85.50
46752;DHT22;32497;48.936;9.270;2023-10-09T03:13:49;12.90;85.40
46752;DHT22;32497;48.936;9.270;2023-10-09T03:18:51;12.90;85.60
46752;DHT22;32497;48.936;9.270;2023-10-09T03:23:54;12.80;85.70
46752;DHT22;32497;48.936;9.270;2023-10-09T03:28:55;12.80;85.80
46752;DHT22;32497;48.936;9.270;2023-10-09T03:33:56;12.70;85.80
46752;DHT22;32497;48.936;9.270;2023-10-09T03:38:59;12.70;85.90
46752;DHT22;32497;48.936;9.270;2023-10-09T03:44:00;12.60;85.80
46752;DHT22;32497;48.936;9.270;2023-10-09T03:49:01;12.70;85.80
46752;DHT22;32497;48.936;9.270;2023-10-09T03:54:03;12.60;85.80
46752;DHT22;32497;48.936;9.270;2023-10-09T03:59:04;12.70;85.60
46752;DHT22;32497;48.936;9.270;2023-10-09T04:04:06;12.70;85.60
46752;DHT22;32497;48.936;9.270;2023-10-09T04:09:10;12.70;85.60
46752;DHT22;32497;48.936;9.270;2023-10-09T04:14:11;12.70;85.60
46752;DHT22;32497;48.936;9.270;2023-10-09T04:19:12;12.70;85.80
46752;DHT22;32497;48.936;9.270;2023-10-09T04:24:15;12.60;86.10
46752;DHT22;32497;48.936;9.270;2023-10-09T04:29:16;12.60;86.20
46752;DHT22;32497;48.936;9.270;2023-10-09T04:34:18;12.40;86.20
46752;DHT22;32497;48.936;9.270;2023-10-09T04:39:20;12.40;86.00
46752;DHT22;32497;48.936;9.270;2023-10-09T04:44:21;12.60;85.10
46752;DHT22;32497;48.936;9.270;2023-10-09T04:49:22;12.70;85.30
46752;DHT22;32497;48.936;9.270;2023-10-09T04:54:25;12.70;85.10
46752;DHT22;32497;48.936;9.270;2023-10-09T04:59:26;12.70;85.30
46752;DHT22;32497;48.936;9.270;2023-10-09T05:04:27;12.70;85.20
46752;DHT22;32497;48.936;9.270;2023-10-09T05:09:29;12.70;85.00
46752;DHT22;32497;48.936;9.270;2023-10-09T05:14:30;12.80;84.90
46752;DHT22;32497;48.936;9.270;2023-10-09T05:19:31;12.80;84.60
46752;DHT22;32497;48.936;9.270;2023-10-09T05:24:34;12.80;84.70
46752;DHT22;32497;48.936;9.270;2023-10-09T05:29:35;12.70;84.70
46752;DHT22;32497;48.936;9.270;2023-10-09T05:34:36;12.70;85.00
46752;DHT22;32497;48.936;9.270;2023-10-09T05:39:38;12.60;85.30
46752;DHT22;32497;48.936;9.270;2023-10-09T05:44:40;12.60;85.90
46752;DHT22;32497;48.936;9.270;2023-10-09T05:49:41;12.60;86.00
46752;DHT22;32497;48.936;9.270;2023-10-09T05:54:43;12.60;86.00
46752;DHT22;32497;48.936;9.270;2023-10-09T05:59:44;12.70;85.90
46752;DHT22;32497;48.936;9.270;2023-10-09T06:04:45;12.80;85.80
46752;DHT22;32497;48.936;9.270;2023-10-09T06:09:48;12.90;85.60
46752;DHT22;32497;48.936;9.270;2023-10-09T06:14:49;13.00;85.30
46752;DHT22;32497;48.936;9.270;2023-10-09T06:19:50;13.00;85.30
46752;DHT22;32497;48.936;9.270;2023-10-09T06:24:53;13.10;84.70
46752;DHT22;32497;48.936;9.270;2023-10-09T06:29:54;13.10;84.60
46752;DHT22;32497;48.936;9.270;2023-10-09T06:34:57;13.20;84.00
46752;DHT22;32497;48.936;9.270;2023-10-09T06:40:00;13.40;83.20
46752;DHT22;32497;48.936;9.270;2023-10-09T06:45:01;13.40;82.50
46752;DHT22;32497;48.936;9.270;2023-10-09T06:50:02;13.60;82.00
46752;DHT22;32497;48.936;9.270;2023-10-09T06:55:06;13.70;81.10
46752;DHT22;32497;48.936;9.270;2023-10-09T07:00:08;13.80;81.30
46752;DHT22;32497;48.936;9.270;2023-10-09T07:05:09;13.90;80.80
46752;DHT22;32497;48.936;9.270;2023-10-09T07:10:11;14.10;79.90
46752;DHT22;32497;48.936;9.270;2023-10-09T07:15:13;14.20;79.80
46752;DHT22;32497;48.936;9.270;2023-10-09T07:20:14;14.20;79.30
46752;DHT22;32497;48.936;9.270;2023-10-09T07:25:16;14.30;78.60
46752;DHT22;32497;48.936;9.270;2023-10-09T07:30:18;14.40;78.20
46752;DHT22;32497;48.936;9.270;2023-10-09T07:35:20;14.70;78.70
46752;DHT22;32497;48.936;9.270;2023-10-09T07:40:22;15.00;77.80
46752;DHT22;32497;48.936;9.270;2023-10-09T07:45:23;15.20;76.90
46752;DHT22;32497;48.936;9.270;2023-10-09T07:50:25;15.30;76.30
46752;DHT22;32497;48.936;9.270;2023-10-09T07:55:27;15.50;75.70
46752;DHT22;32497;48.936;9.270;2023-10-09T08:00:28;15.70;75.40
46752;DHT22;32497;48.936;9.270;2023-10-09T08:05:29;15.90;75.20
46752;DHT22;32497;48.936;9.270;2023-10-09T08:10:32;16.20;75.30
46752;DHT22;32497;48.936;9.270;2023-10-09T08:15:33;16.40;74.60
46752;DHT22;32497;48.936;9.270;2023-10-09T08:20:34;16.50;73.90
46752;DHT22;32497;48.936;9.270;2023-10-09T08:25:36;16.70;72.70
46752;DHT22;32497;48.936;9.270;2023-10-09T08:30:37;16.60;73.80
46752;DHT22;32497;48.936;9.270;2023-10-09T08:35:38;16.80;73.10
46752;DHT22;32497;48.936;9.270;2023-10-09T08:40:41;17.10;70.60
46752;DHT22;32497;48.936;9.270;2023-10-09T08:45:46;17.10;70.60
46752;DHT22;32497;48.936;9.270;2023-10-09T08:50:48;17.40;69.60
46752;DHT22;32497;48.936;9.270;2023-10-09T08:55:51;17.40;70.00
46752;DHT22;32497;48.936;9.270;2023-10-09T09:00:52;17.70;68.90
46752;DHT22;32497;48.936;9.270;2023-10-09T09:05:58;17.90;67.80
46752;DHT22;32497;48.936;9.270;2023-10-09T09:11:02;18.30;65.70
46752;DHT22;32497;48.936;9.270;2023-10-09T09:16:03;18.70;65.60
46752;DHT22;32497;48.936;9.270;2023-10-09T09:21:17;19.00;64.80
46752;DHT22;32497;48.936;9.270;2023-10-09T09:26:33;19.40;66.20
46752;DHT22;32497;48.936;9.270;2023-10-09T09:31:34;19.80;65.20
46752;DHT22;32497;48.936;9.270;2023-10-09T09:36:35;20.10;63.70
46752;DHT22;32497;48.936;9.270;2023-10-09T09:41:38;20.20;62.50
46752;DHT22;32497;48.936;9.270;2023-10-09T09:46:39;20.40;63.10
46752;DHT22;32497;48.936;9.270;2023-10-09T09:51:40;20.90;60.30
46752;DHT22;32497;48.936;9.270;2023-10-09T09:56:44;20.90;59.50
46752;DHT22;32497;48.936;9.270;2023-10-09T10:01:45;21.50;57.90
46752;DHT22;32497;48.936;9.270;2023-10-09T10:06:47;21.40;56.70
46752;DHT22;32497;48.936;9.270;2023-10-09T10:11:50;21.70;56.90
46752;DHT22;32497;48.936;9.270;2023-10-09T10:17:05;21.50;54.90
46752;DHT22;32497;48.936;9.270;2023-10-09T10:22:24;21.40;56.10
46752;DHT22;32497;48.936;9.270;2023-10-09T10:27:27;21.70;54.70
46752;DHT22;32497;48.936;9.270;2023-10-09T10:32:53;21.20;55.60
46752;DHT22;32497;48.936;9.270;2023-10-09T10:37:54;21.20;55.20
46752;DHT22;32497;48.936;9.270;2023-10-09T10:42:57;21.70;56.50
46752;DHT22;32497;48.936;9.270;2023-10-09T10:47:58;22.30;54.30
46752;DHT22;32497;48.936;9.270;2023-10-09T10:53:11;22.40;54.10
46752;DHT22;32497;48.936;9.270;2023-10-09T10:58:17;22.70;54.20
46752;DHT22;32497;48.936;9.270;2023-10-09T11:03:18;23.20;53.00
46752;DHT22;32497;48.936;9.270;2023-10-09T11:08:24;23.70;49.50
46752;DHT22;32497;48.936;9.270;2023-10-09T11:13:27;24.20;49.00
46752;DHT22;32497;48.936;9.270;2023-10-09T11:18:28;24.60;47.60
46752;DHT22;32497;48.936;9.270;2023-10-09T11:23:30;24.50;46.90
46752;DHT22;32497;48.936;9.270;2023-10-09T11:28:33;24.50;48.40
46752;DHT22;32497;48.936;9.270;2023-10-09T11:33:44;24.00;50.50
46752;DHT22;32497;48.936;9.270;2023-10-09T11:38:45;23.40;56.80
46752;DHT22;32497;48.936;9.270;2023-10-09T11:43:49;22.30;57.20
46752;DHT22;32497;48.936;9.270;2023-10-09T11:49:03;21.90;62.50
46752;DHT22;32497;48.936;9.270;2023-10-09T11:54:04;21.70;59.80
46752;DHT22;32497;48.936;9.270;2023-10-09T11:59:07;21.90;61.40
46752;DHT22;32497;48.936;9.270;2023-10-09T12:04:08;22.20;60.20
46752;DHT22;32497;48.936;9.270;2023-10-09T12:09:09;22.50;59.30
46752;DHT22;32497;48.936;9.270;2023-10-09T12:14:11;22.70;61.10
46752;DHT22;32497;48.936;9.270;2023-10-09T12:19:12;22.50;60.10
46752;DHT22;32497;48.936;9.270;2023-10-09T12:24:14;22.70;60.60
46752;DHT22;32497;48.936;9.270;2023-10-09T12:29:16;23.10;58.70
46752;DHT22;32497;48.936;9.270;2023-10-09T12:34:17;24.60;53.20
46752;DHT22;32497;48.936;9.270;2023-10-09T12:39:19;25.10;50.80
46752;DHT22;32497;48.936;9.270;2023-10-09T12:44:22;25.60;50.90
46752;DHT22;32497;48.936;9.270;2023-10-09T12:49:23;26.50;45.30
46752;DHT22;32497;48.936;9.270;2023-10-09T12:54:25;26.20;47.70
46752;DHT22;32497;48.936;9.270;2023-10-09T12:59:28;25.70;49.10
46752;DHT22;32497;48.936;9.270;2023-10-09T13:04:29;25.20;50.70
46752;DHT22;32497;48.936;9.270;2023-10-09T13:09:30;26.00;47.00
46752;DHT22;32497;48.936;9.270;2023-10-09T13:14:33;27.60;43.90
46752;DHT22;32497;48.936;9.270;2023-10-09T13:19:34;27.20;42.10
46752;DHT22;32497;48.936;9.270;2023-10-09T13:24:35;28.00;42.80
46752;DHT22;32497;48.936;9.270;2023-10-09T13:29:38;29.10;37.00
46752;DHT22;32497;48.936;9.270;2023-10-09T13:34:39;29.60;36.30
46752;DHT22;32497;48.936;9.270;2023-10-09T13:39:41;31.20;33.00
46752;DHT22;32497;48.936;9.270;2023-10-09T13:44:43;32.60;32.80
46752;DHT22;32497;48.936;9.270;2023-10-09T13:49:44;32.70;31.00
46752;DHT22;32497;48.936;9.270;2023-10-09T13:54:45;30.50;29.90
46752;DHT22;32497;48.936;9.270;2023-10-09T13:59:48;27.90;33.10
46752;DHT22;32497;48.936;9.270;2023-10-09T14:04:49;26.30;35.80
46752;DHT22;32497;48.936;9.270;2023-10-09T14:09:50;25.70;39.30
46752;DHT22;32497;48.936;9.270;2023-10-09T14:14:53;25.40;39.50
46752;DHT22;32497;48.936;9.270;2023-10-09T14:19:55;24.70;41.00
46752;DHT22;32497;48.936;9.270;2023-10-09T14:24:56;24.70;40.50
46752;DHT22;32497;48.936;9.270;2023-10-09T14:29:59;25.00;38.20
46752;DHT22;32497;48.936;9.270;2023-10-09T14:35:00;24.70;39.30
46752;DHT22;32497;48.936;9.270;2023-10-09T14:40:02;24.70;40.30
46752;DHT22;32497;48.936;9.270;2023-10-09T14:45:06;24.30;40.70
46752;DHT22;32497;48.936;9.270;2023-10-09T14:50:07;24.20;40.30
46752;DHT22;32497;48.936;9.270;2023-10-09T14:55:09;24.00;40.20
46752;DHT22;32497;48.936;9.270;2023-10-09T15:00:13;23.80;39.30
46752;DHT22;32497;48.936;9.270;2023-10-09T15:05:14;23.70;39.40
46752;DHT22;32497;48.936;9.270;2023-10-09T15:10:16;23.80;39.30
46752;DHT22;32497;48.936;9.270;2023-10-09T15:15:18;23.90;39.90
46752;DHT22;32497;48.936;9.270;2023-10-09T15:20:19;23.80;37.00
46752;DHT22;32497;48.936;9.270;2023-10-09T15:25:21;23.80;39.90
46752;DHT22;32497;48.936;9.270;2023-10-09T15:30:23;23.60;41.80
46752;DHT22;32497;48.936;9.270;2023-10-09T15:35:24;23.40;41.20
46752;DHT22;32497;48.936;9.270;2023-10-09T15:40:28;23.20;41.40
46752;DHT22;32497;48.936;9.270;2023-10-09T15:45:30;23.10;42.10
46752;DHT22;32497;48.936;9.270;2023-10-09T15:50:31;23.10;39.80
46752;DHT22;32497;48.936;9.270;2023-10-09T15:55:34;23.00;41.70
46752;DHT22;32497;48.936;9.270;2023-10-09T16:00:36;22.70;40.80
46752;DHT22;32497;48.936;9.270;2023-10-09T16:05:37;22.50;43.20
46752;DHT22;32497;48.936;9.270;2023-10-09T16:10:38;22.20;45.20
46752;DHT22;32497;48.936;9.270;2023-10-09T16:15:42;21.90;44.50
46752;DHT22;32497;48.936;9.270;2023-10-09T16:20:43;21.70;43.20
46752;DHT22;32497;48.936;9.270;2023-10-09T16:25:45;21.60;43.50
46752;DHT22;32497;48.936;9.270;2023-10-09T16:30:47;21.30;45.10
46752;DHT22;32497;48.936;9.270;2023-10-09T16:35:49;21.20;44.20
46752;DHT22;32497;48.936;9.270;2023-10-09T16:40:53;21.00;46.90
46752;DHT22;32497;48.936;9.270;2023-10-09T16:45:56;20.70;48.30
46752;DHT22;32497;48.936;9.270;2023-10-09T16:50:57;20.40;47.10
46752;DHT22;32497;48.936;9.270;2023-10-09T16:56:00;20.30;47.90
46752;DHT22;32497;48.936;9.270;2023-10-09T17:01:03;20.20;49.10
46752;DHT22;32497;48.936;9.270;2023-10-09T17:06:04;20.40;47.40
46752;DHT22;32497;48.936;9.270;2023-10-09T17:11:06;20.70;47.30
46752;DHT22;32497;48.936;9.270;2023-10-09T17:16:13;20.50;48.30
46752;DHT22;32497;48.936;9.270;2023-10-09T17:21:14;20.60;47.80
46752;DHT22;32497;48.936;9.270;2023-10-09T17:26:16;20.30;48.90
46752;DHT22;32497;48.936;9.270;2023-10-09T17:31:18;20.00;49.80
46752;DHT22;32497;48.936;9.270;2023-10-09T17:36:20;19.80;49.70
46752;DHT22;32497;48.936;9.270;2023-10-09T17:41:21;19.40;52.80
46752;DHT22;32497;48.936;9.270;2023-10-09T17:46:24;19.10;53.30
46752;DHT22;32497;48.936;9.270;2023-10-09T17:51:25;18.70;54.10
46752;DHT22;32497;48.936;9.270;2023-10-09T17:56:26;18.60;54.10
46752;DHT22;32497;48.936;9.270;2023-10-09T18:01:29;18.40;55.10
46752;DHT22;32497;48.936;9.270;2023-10-09T18:06:30;18.40;53.60
46752;DHT22;32497;48.936;9.270;2023-10-09T18:11:31;18.60;52.40
46752;DHT22;32497;48.936;9.270;2023-10-09T18:16:34;18.70;52.70
46752;DHT22;32497;48.936;9.270;2023-10-09T18:21:35;18.60;52.80
46752;DHT22;32497;48.936;9.270;2023-10-09T18:26:37;18.50;53.30
46752;DHT22;32497;48.936;9.270;2023-10-09T18:31:39;18.30;54.00
46752;DHT22;32497;48.936;9.270;2023-10-09T18:36:41;18.40;54.40
46752;DHT22;32497;48.936;9.270;2023-10-09T18:41:42;18.30;54.00
46752;DHT22;32497;48.936;9.270;2023-10-09T18:46:44;18.30;53.70
46752;DHT22;32497;48.936;9.270;2023-10-09T18:51:46;18.20;54.30
46752;DHT22;32497;48.936;9.270;2023-10-09T18:56:47;18.10;53.70
46752;DHT22;32497;48.936;9.270;2023-10-09T19:01:49;18.20;53.70
46752;DHT22;32497;48.936;9.270;2023-10-09T19:06:51;18.20;53.90
46752;DHT22;32497;48.936;9.270;2023-10-09T19:11:52;18.10;54.00
46752;DHT22;32497;48.936;9.270;2023-10-09T19:16:55;18.20;53.80
46752;DHT22;32497;48.936;9.270;2023-10-09T19:21:57;18.20;53.60
46752;DHT22;32497;48.936;9.270;2023-10-09T19:26:58;18.20;54.20
46752;DHT22;32497;48.936;9.270;2023-10-09T19:32:00;18.10;53.30
46752;DHT22;32497;48.936;9.270;2023-10-09T19:37:02;18.00;53.70
46752;DHT22;32497;48.936;9.270;2023-10-09T19:42:03;18.00;53.10
46752;DHT22;32497;48.936;9.270;2023-10-09T19:47:05;18.10;53.30
46752;DHT22;32497;48.936;9.270;2023-10-09T19:52:07;18.20;53.50
46752;DHT22;32497;48.936;9.270;2023-10-09T19:57:08;18.10;53.50
46752;DHT22;32497;48.936;9.270;2023-10-09T20:02:10;18.00;54.60
46752;DHT22;32497;48.936;9.270;2023-10-09T20:07:11;17.80;55.50
46752;DHT22;32497;48.936;9.270;2023-10-09T20:12:13;17.70;56.00
46752;DHT22;32497;48.936;9.270;2023-10-09T20:17:15;17.60;57.00
46752;DHT22;32497;48.936;9.270;2023-10-09T20:22:16;17.50;57.10
46752;DHT22;32497;48.936;9.270;2023-10-09T20:27:17;17.50;57.40
46752;DHT22;32497;48.936;9.270;2023-10-09T20:32:20;17.40;58.50
46752;DHT22;32497;48.936;9.270;2023-10-09T20:37:21;17.20;59.20
46752;DHT22;32497;48.936;9.270;2023-10-09T20:42:22;17.20;59.40
46752;DHT22;32497;48.936;9.270;2023-10-09T20:47:25;17.00;60.00
46752;DHT22;32497;48.936;9.270;2023-10-09T20:52:26;16.90;60.30
46752;DHT22;32497;48.936;9.270;2023-10-09T20:57:27;16.80;60.70
46752;DHT22;32497;48.936;9.270;2023-10-09T21:02:29;16.60;61.30
46752;DHT22;32497;48.936;9.270;2023-10-09T21:07:30;16.50;62.10
46752;DHT22;32497;48.936;9.270;2023-10-09T21:12:32;16.30;62.80
46752;DHT22;32497;48.936;9.270;2023-10-09T21:17:34;16.10;64.00
46752;DHT22;32497;48.936;9.270;2023-10-09T21:22:36;15.90;64.70
46752;DHT22;32497;48.936;9.270;2023-10-09T21:27:37;15.70;64.90
46752;DHT22;32497;48.936;9.270;2023-10-09T21:32:40;15.60;65.10
46752;DHT22;32497;48.936;9.270;2023-10-09T21:37:42;15.60;65.20
46752;DHT22;32497;48.936;9.270;2023-10-09T21:42:45;15.50;65.20
46752;DHT22;32497;48.936;9.270;2023-10-09T21:47:47;15.60;65.30
46752;DHT22;32497;48.936;9.270;2023-10-09T21:52:48;15.60;65.30
46752;DHT22;32497;48.936;9.270;2023-10-09T21:57:50;15.60;65.10
46752;DHT22;32497;48.936;9.270;2023-10-09T22:02:52;15.70;64.80
46752;DHT22;32497;48.936;9.270;2023-10-09T22:07:53;15.60;65.30
46752;DHT22;32497;48.936;9.270;2023-10-09T22:12:55;15.50;65.80
46752;DHT22;32497;48.936;9.270;2023-10-09T22:17:57;15.50;65.90
46752;DHT22;32497;48.936;9.270;2023-10-09T22:22:58;15.50;66.50
46752;DHT22;32497;48.936;9.270;2023-10-09T22:27:59;15.50;66.00
46752;DHT22;32497;48.936;9.270;2023-10-09T22:33:02;15.50;66.50
46752;DHT22;32497;48.936;9.270;2023-10-09T22:38:04;15.30;66.50
46752;DHT22;32497;48.936;9.270;2023-10-09T22:43:05;15.20;67.00
46752;DHT22;32497;48.936;9.270;2023-10-09T22:48:08;15.10;68.30
46752;DHT22;32497;48.936;9.270;2023-10-09T22:53:09;14.90;68.50
46752;DHT22;32497;48.936;9.270;2023-10-09T22:58:11;14.80;69.80
46752;DHT22;32497;48.936;9.270;2023-10-09T23:03:15;14.60;70.40
46752;DHT22;32497;48.936;9.270;2023-10-09T23:08:16;14.50;70.70
46752;DHT22;32497;48.936;9.270;2023-10-09T23:13:17;14.40;71.80
46752;DHT22;32497;48.936;9.270;2023-10-09T23:18:20;14.30;72.40
46752;DHT22;32497;48.936;9.270;2023-10-09T23:23:21;14.20;72.70
46752;DHT22;32497;48.936;9.270;2023-10-09T23:28:23;14.20;72.90
46752;DHT22;32497;48.936;9.270;2023-10-09T23:33:25;14.10;73.30
46752;DHT22;32497;48.936;9.270;2023-10-09T23:38:26;14.20;73.80
46752;DHT22;32497;48.936;9.270;2023-10-09T23:43:28;14.00;74.10
46752;DHT22;32497;48.936;9.270;2023-10-09T23:48:30;14.00;74.60
46752;DHT22;32497;48.936;9.270;2023-10-09T23:53:32;13.90;74.90
46752;DHT22;32497;48.936;9.270;2023-10-09T23:58:34;13.90;75.20
